sensor_id;sensor_type;location;lat;lon;timestamp;pressure;altitude;pressure_sealevel;temperature;humidity
34034;BME280;63481;52.588;22.472;2023-07-31T00:00:10;99484.24;;;16.89;88.84
34034;BME280;63481;52.588;22.472;2023-07-31T00:00:46;99488.59;;;16.84;89.40
34034;BME280;63481;52.588;22.472;2023-07-31T00:01:30;99487.84;;;16.84;89.62
34034;BME280;63481;52.588;22.472;2023-07-31T00:02:02;99490.98;;;16.85;89.81
34034;BME280;63481;52.588;22.472;2023-07-31T00:02:34;99491.61;;;16.83;90.05
34034;BME280;63481;52.588;22.472;2023-07-31T00:03:06;99491.39;;;16.83;90.10
34034;BME280;63481;52.588;22.472;2023-07-31T00:03:38;99487.85;;;16.86;90.18
34034;BME280;63481;52.588;22.472;2023-07-31T00:04:10;99485.32;;;16.87;90.22
34034;BME280;63481;52.588;22.472;2023-07-31T00:04:42;99488.04;;;16.90;90.14
34034;BME280;63481;52.588;22.472;2023-07-31T00:05:13;99488.13;;;16.90;89.96
34034;BME280;63481;52.588;22.472;2023-07-31T00:05:45;99487.70;;;16.91;89.66
34034;BME280;63481;52.588;22.472;2023-07-31T00:06:17;99484.41;;;16.92;89.73
34034;BME280;63481;52.588;22.472;2023-07-31T00:06:49;99485.16;;;16.94;89.62
34034;BME280;63481;52.588;22.472;2023-07-31T00:07:21;99483.02;;;16.93;89.54
34034;BME280;63481;52.588;22.472;2023-07-31T00:07:52;99484.95;;;16.92;89.65
34034;BME280;63481;52.588;22.472;2023-07-31T00:08:26;99485.00;;;16.94;89.72
34034;BME280;63481;52.588;22.472;2023-07-31T00:08:58;99486.59;;;16.98;89.86
34034;BME280;63481;52.588;22.472;2023-07-31T00:09:29;99485.30;;;17.01;89.77
34034;BME280;63481;52.588;22.472;2023-07-31T00:10:01;99484.38;;;17.01;89.78
34034;BME280;63481;52.588;22.472;2023-07-31T00:10:34;99489.49;;;16.98;89.42
34034;BME280;63481;52.588;22.472;2023-07-31T00:11:06;99483.67;;;16.95;89.64
34034;BME280;63481;52.588;22.472;2023-07-31T00:11:38;99485.56;;;16.98;89.80
34034;BME280;63481;52.588;22.472;2023-07-31T00:12:10;99485.47;;;16.98;89.69
34034;BME280;63481;52.588;22.472;2023-07-31T00:12:43;99486.54;;;16.99;89.42
34034;BME280;63481;52.588;22.472;2023-07-31T00:13:15;99486.10;;;16.98;89.31
34034;BME280;63481;52.588;22.472;2023-07-31T00:13:47;99486.70;;;16.98;89.24
34034;BME280;63481;52.588;22.472;2023-07-31T00:14:18;99485.29;;;16.99;89.34
34034;BME280;63481;52.588;22.472;2023-07-31T00:14:50;99483.73;;;16.99;89.46
34034;BME280;63481;52.588;22.472;2023-07-31T00:15:22;99485.35;;;17.00;89.45
34034;BME280;63481;52.588;22.472;2023-07-31T00:15:54;99487.23;;;17.01;89.44
34034;BME280;63481;52.588;22.472;2023-07-31T00:16:26;99481.52;;;16.99;89.27
34034;BME280;63481;52.588;22.472;2023-07-31T00:16:58;99483.95;;;16.98;89.25
34034;BME280;63481;52.588;22.472;2023-07-31T00:17:30;99485.19;;;16.99;89.11
34034;BME280;63481;52.588;22.472;2023-07-31T00:18:02;99481.69;;;16.96;88.90
34034;BME280;63481;52.588;22.472;2023-07-31T00:18:34;99479.96;;;16.96;88.75
34034;BME280;63481;52.588;22.472;2023-07-31T00:19:06;99483.07;;;16.92;88.41
34034;BME280;63481;52.588;22.472;2023-07-31T00:19:38;99482.41;;;16.89;88.21
34034;BME280;63481;52.588;22.472;2023-07-31T00:20:10;99486.39;;;16.84;88.14
34034;BME280;63481;52.588;22.472;2023-07-31T00:20:42;99486.21;;;16.76;88.33
34034;BME280;63481;52.588;22.472;2023-07-31T00:21:14;99486.40;;;16.70;88.57
34034;BME280;63481;52.588;22.472;2023-07-31T00:21:46;99489.90;;;16.69;88.76
34034;BME280;63481;52.588;22.472;2023-07-31T00:22:18;99491.88;;;16.63;88.86
34034;BME280;63481;52.588;22.472;2023-07-31T00:22:50;99491.71;;;16.62;89.16
34034;BME280;63481;52.588;22.472;2023-07-31T00:23:22;99491.91;;;16.61;89.04
34034;BME280;63481;52.588;22.472;2023-07-31T00:23:54;99486.53;;;16.60;89.10
34034;BME280;63481;52.588;22.472;2023-07-31T00:24:26;99487.70;;;16.58;89.13
34034;BME280;63481;52.588;22.472;2023-07-31T00:24:58;99491.90;;;16.58;89.13
34034;BME280;63481;52.588;22.472;2023-07-31T00:25:31;99492.55;;;16.57;89.35
34034;BME280;63481;52.588;22.472;2023-07-31T00:26:03;99495.14;;;16.58;89.33
34034;BME280;63481;52.588;22.472;2023-07-31T00:26:35;99495.20;;;16.59;89.31
34034;BME280;63481;52.588;22.472;2023-07-31T00:27:07;99492.61;;;16.61;89.27
34034;BME280;63481;52.588;22.472;2023-07-31T00:27:38;99494.19;;;16.61;89.19
34034;BME280;63481;52.588;22.472;2023-07-31T00:28:10;99490.73;;;16.62;89.02
34034;BME280;63481;52.588;22.472;2023-07-31T00:28:42;99494.55;;;16.60;89.01
34034;BME280;63481;52.588;22.472;2023-07-31T00:29:14;99491.64;;;16.58;88.79
34034;BME280;63481;52.588;22.472;2023-07-31T00:29:46;99490.52;;;16.57;88.78
34034;BME280;63481;52.588;22.472;2023-07-31T00:30:18;99490.77;;;16.55;88.90
34034;BME280;63481;52.588;22.472;2023-07-31T00:30:50;99488.81;;;16.53;88.96
34034;BME280;63481;52.588;22.472;2023-07-31T00:31:22;99490.55;;;16.52;89.18
34034;BME280;63481;52.588;22.472;2023-07-31T00:31:54;99485.88;;;16.51;89.22
34034;BME280;63481;52.588;22.472;2023-07-31T00:32:25;99487.81;;;16.50;89.27
34034;BME280;63481;52.588;22.472;2023-07-31T00:32:58;99489.36;;;16.50;89.27
34034;BME280;63481;52.588;22.472;2023-07-31T00:33:31;99488.61;;;16.49;89.51
34034;BME280;63481;52.588;22.472;2023-07-31T00:34:03;99490.27;;;16.48;89.59
34034;BME280;63481;52.588;22.472;2023-07-31T00:34:35;99492.75;;;16.48;89.55
34034;BME280;63481;52.588;22.472;2023-07-31T00:35:08;99491.84;;;16.48;89.46
34034;BME280;63481;52.588;22.472;2023-07-31T00:35:40;99495.02;;;16.48;89.54
34034;BME280;63481;52.588;22.472;2023-07-31T00:36:12;99490.71;;;16.49;89.54
34034;BME280;63481;52.588;22.472;2023-07-31T00:36:44;99493.19;;;16.51;89.51
34034;BME280;63481;52.588;22.472;2023-07-31T00:37:16;99491.96;;;16.51;89.45
34034;BME280;63481;52.588;22.472;2023-07-31T00:37:48;99489.38;;;16.51;89.52
34034;BME280;63481;52.588;22.472;2023-07-31T00:38:19;99491.75;;;16.58;89.42
34034;BME280;63481;52.588;22.472;2023-07-31T00:38:51;99490.05;;;16.66;89.51
34034;BME280;63481;52.588;22.472;2023-07-31T00:39:23;99489.50;;;16.62;89.32
34034;BME280;63481;52.588;22.472;2023-07-31T00:39:55;99492.65;;;16.48;88.78
34034;BME280;63481;52.588;22.472;2023-07-31T00:40:27;99495.84;;;16.44;88.39
34034;BME280;63481;52.588;22.472;2023-07-31T00:40:59;99496.34;;;16.42;88.28
34034;BME280;63481;52.588;22.472;2023-07-31T00:41:31;99493.89;;;16.38;88.51
34034;BME280;63481;52.588;22.472;2023-07-31T00:42:03;99495.39;;;16.33;88.40
34034;BME280;63481;52.588;22.472;2023-07-31T00:42:35;99496.91;;;16.29;88.36
34034;BME280;63481;52.588;22.472;2023-07-31T00:43:07;99498.61;;;16.25;88.60
34034;BME280;63481;52.588;22.472;2023-07-31T00:43:40;99501.23;;;16.20;88.80
34034;BME280;63481;52.588;22.472;2023-07-31T00:44:13;99500.23;;;16.14;88.56
34034;BME280;63481;52.588;22.472;2023-07-31T00:44:44;99497.73;;;16.11;88.74
34034;BME280;63481;52.588;22.472;2023-07-31T00:45:16;99495.29;;;16.06;88.93
34034;BME280;63481;52.588;22.472;2023-07-31T00:45:48;99496.48;;;16.00;89.47
34034;BME280;63481;52.588;22.472;2023-07-31T00:46:20;99497.39;;;15.91;90.47
34034;BME280;63481;52.588;22.472;2023-07-31T00:46:53;99499.16;;;15.75;91.26
34034;BME280;63481;52.588;22.472;2023-07-31T00:47:25;99496.36;;;15.67;91.58
34034;BME280;63481;52.588;22.472;2023-07-31T00:47:58;99498.25;;;15.62;91.63
34034;BME280;63481;52.588;22.472;2023-07-31T00:48:31;99496.12;;;15.63;91.77
34034;BME280;63481;52.588;22.472;2023-07-31T00:49:04;99497.79;;;15.77;91.93
34034;BME280;63481;52.588;22.472;2023-07-31T00:49:37;99499.55;;;15.76;92.22
34034;BME280;63481;52.588;22.472;2023-07-31T00:50:09;99497.75;;;15.72;92.48
34034;BME280;63481;52.588;22.472;2023-07-31T00:50:41;99495.98;;;15.66;92.80
34034;BME280;63481;52.588;22.472;2023-07-31T00:51:13;99496.85;;;15.60;93.51
34034;BME280;63481;52.588;22.472;2023-07-31T00:51:45;99494.98;;;15.56;93.68
34034;BME280;63481;52.588;22.472;2023-07-31T00:52:18;99496.46;;;15.53;93.86
34034;BME280;63481;52.588;22.472;2023-07-31T00:52:50;99497.21;;;15.51;94.29
34034;BME280;63481;52.588;22.472;2023-07-31T00:53:24;99497.93;;;15.53;94.60
34034;BME280;63481;52.588;22.472;2023-07-31T00:53:56;99493.77;;;15.58;94.65
34034;BME280;63481;52.588;22.472;2023-07-31T00:54:28;99494.74;;;15.60;94.51
34034;BME280;63481;52.588;22.472;2023-07-31T00:55:00;99492.94;;;15.62;94.62
34034;BME280;63481;52.588;22.472;2023-07-31T00:55:32;99497.48;;;15.64;94.72
34034;BME280;63481;52.588;22.472;2023-07-31T00:56:06;99498.58;;;15.69;94.79
34034;BME280;63481;52.588;22.472;2023-07-31T00:56:37;99502.36;;;15.71;94.54
34034;BME280;63481;52.588;22.472;2023-07-31T00:57:10;99502.90;;;15.71;94.48
34034;BME280;63481;52.588;22.472;2023-07-31T00:57:42;99499.71;;;15.69;94.43
34034;BME280;63481;52.588;22.472;2023-07-31T00:58:14;99498.86;;;15.70;94.50
34034;BME280;63481;52.588;22.472;2023-07-31T00:58:46;99497.73;;;15.71;94.35
34034;BME280;63481;52.588;22.472;2023-07-31T00:59:18;99499.26;;;15.74;94.46
34034;BME280;63481;52.588;22.472;2023-07-31T00:59:50;99497.59;;;15.74;94.43
34034;BME280;63481;52.588;22.472;2023-07-31T01:00:22;99498.19;;;15.75;94.21
34034;BME280;63481;52.588;22.472;2023-07-31T01:00:54;99496.14;;;15.74;94.23
34034;BME280;63481;52.588;22.472;2023-07-31T01:01:27;99497.87;;;15.74;94.12
34034;BME280;63481;52.588;22.472;2023-07-31T01:01:59;99500.11;;;15.79;94.04
34034;BME280;63481;52.588;22.472;2023-07-31T01:02:31;99496.98;;;15.79;93.89
34034;BME280;63481;52.588;22.472;2023-07-31T01:03:03;99497.00;;;15.80;93.77
34034;BME280;63481;52.588;22.472;2023-07-31T01:03:35;99498.37;;;15.84;93.76
34034;BME280;63481;52.588;22.472;2023-07-31T01:04:07;99499.55;;;15.91;93.69
34034;BME280;63481;52.588;22.472;2023-07-31T01:04:39;99497.30;;;15.93;93.51
34034;BME280;63481;52.588;22.472;2023-07-31T01:05:11;99497.63;;;15.93;93.39
34034;BME280;63481;52.588;22.472;2023-07-31T01:05:54;99495.86;;;15.94;93.51
34034;BME280;63481;52.588;22.472;2023-07-31T01:06:37;99494.46;;;15.95;93.22
34034;BME280;63481;52.588;22.472;2023-07-31T01:07:39;99496.83;;;15.95;93.01
34034;BME280;63481;52.588;22.472;2023-07-31T01:09:29;99496.52;;;15.91;94.35
34034;BME280;63481;52.588;22.472;2023-07-31T01:10:23;99493.77;;;15.95;94.67
34034;BME280;63481;52.588;22.472;2023-07-31T01:11:16;99492.30;;;15.93;94.43
34034;BME280;63481;52.588;22.472;2023-07-31T01:11:53;99487.45;;;15.91;94.30
34034;BME280;63481;52.588;22.472;2023-07-31T01:12:27;99489.86;;;15.91;94.03
34034;BME280;63481;52.588;22.472;2023-07-31T01:13:02;99490.41;;;15.92;94.10
34034;BME280;63481;52.588;22.472;2023-07-31T01:13:35;99488.09;;;15.93;94.13
34034;BME280;63481;52.588;22.472;2023-07-31T01:14:07;99487.30;;;15.93;93.59
34034;BME280;63481;52.588;22.472;2023-07-31T01:14:38;99488.38;;;15.93;93.14
34034;BME280;63481;52.588;22.472;2023-07-31T01:15:10;99491.98;;;15.96;92.95
34034;BME280;63481;52.588;22.472;2023-07-31T01:15:42;99495.61;;;15.98;92.88
34034;BME280;63481;52.588;22.472;2023-07-31T01:16:14;99494.21;;;15.98;92.95
34034;BME280;63481;52.588;22.472;2023-07-31T01:16:46;99490.50;;;15.98;93.11
34034;BME280;63481;52.588;22.472;2023-07-31T01:17:18;99492.50;;;15.98;93.41
34034;BME280;63481;52.588;22.472;2023-07-31T01:17:50;99491.85;;;15.97;93.56
34034;BME280;63481;52.588;22.472;2023-07-31T01:18:22;99490.88;;;15.97;93.74
34034;BME280;63481;52.588;22.472;2023-07-31T01:18:54;99489.91;;;15.98;93.87
34034;BME280;63481;52.588;22.472;2023-07-31T01:19:27;99490.09;;;15.99;94.09
34034;BME280;63481;52.588;22.472;2023-07-31T01:20:02;99491.11;;;16.00;94.22
34034;BME280;63481;52.588;22.472;2023-07-31T01:20:36;99490.20;;;16.01;94.43
34034;BME280;63481;52.588;22.472;2023-07-31T01:21:23;99494.73;;;16.03;94.45
34034;BME280;63481;52.588;22.472;2023-07-31T01:23:59;99495.70;;;16.04;94.41
34034;BME280;63481;52.588;22.472;2023-07-31T01:26:21;99492.31;;;16.03;94.05
34034;BME280;63481;52.588;22.472;2023-07-31T01:27:15;99493.80;;;16.03;94.17
34034;BME280;63481;52.588;22.472;2023-07-31T01:27:59;99493.05;;;16.03;94.62
34034;BME280;63481;52.588;22.472;2023-07-31T01:29:07;99493.54;;;16.02;94.65
34034;BME280;63481;52.588;22.472;2023-07-31T01:29:56;99493.44;;;16.04;94.78
34034;BME280;63481;52.588;22.472;2023-07-31T01:30:37;99488.88;;;16.05;94.55
34034;BME280;63481;52.588;22.472;2023-07-31T01:31:15;99490.83;;;16.06;94.56
34034;BME280;63481;52.588;22.472;2023-07-31T01:31:49;99487.42;;;16.06;94.39
34034;BME280;63481;52.588;22.472;2023-07-31T01:32:23;99489.34;;;16.02;94.96
34034;BME280;63481;52.588;22.472;2023-07-31T01:32:57;99492.03;;;16.01;95.33
34034;BME280;63481;52.588;22.472;2023-07-31T01:33:29;99489.55;;;16.02;95.48
34034;BME280;63481;52.588;22.472;2023-07-31T01:34:02;99492.62;;;16.00;95.34
34034;BME280;63481;52.588;22.472;2023-07-31T01:34:35;99493.85;;;16.00;95.49
34034;BME280;63481;52.588;22.472;2023-07-31T01:35:08;99493.64;;;16.02;95.74
34034;BME280;63481;52.588;22.472;2023-07-31T01:35:44;99496.83;;;16.04;95.78
34034;BME280;63481;52.588;22.472;2023-07-31T01:36:16;99497.29;;;16.08;96.03
34034;BME280;63481;52.588;22.472;2023-07-31T01:36:48;99500.00;;;16.13;96.13
34034;BME280;63481;52.588;22.472;2023-07-31T01:37:21;99499.21;;;16.17;96.08
34034;BME280;63481;52.588;22.472;2023-07-31T01:37:53;99500.73;;;16.18;96.12
34034;BME280;63481;52.588;22.472;2023-07-31T01:38:25;99500.30;;;16.19;96.19
34034;BME280;63481;52.588;22.472;2023-07-31T01:38:59;99497.85;;;16.23;96.23
34034;BME280;63481;52.588;22.472;2023-07-31T01:39:31;99498.09;;;16.27;96.14
34034;BME280;63481;52.588;22.472;2023-07-31T01:40:04;99497.20;;;16.31;96.10
34034;BME280;63481;52.588;22.472;2023-07-31T01:40:36;99497.52;;;16.34;95.93
34034;BME280;63481;52.588;22.472;2023-07-31T01:41:08;99497.20;;;16.34;95.74
34034;BME280;63481;52.588;22.472;2023-07-31T01:41:40;99494.57;;;16.32;95.76
34034;BME280;63481;52.588;22.472;2023-07-31T01:42:12;99496.09;;;16.34;95.84
34034;BME280;63481;52.588;22.472;2023-07-31T01:42:44;99496.63;;;16.38;95.95
34034;BME280;63481;52.588;22.472;2023-07-31T01:43:15;99499.56;;;16.42;95.81
34034;BME280;63481;52.588;22.472;2023-07-31T01:43:48;99501.85;;;16.48;95.58
34034;BME280;63481;52.588;22.472;2023-07-31T01:44:20;99497.01;;;16.50;95.30
34034;BME280;63481;52.588;22.472;2023-07-31T01:44:52;99502.45;;;16.50;95.22
34034;BME280;63481;52.588;22.472;2023-07-31T01:45:23;99500.08;;;16.50;95.16
34034;BME280;63481;52.588;22.472;2023-07-31T01:45:55;99499.13;;;16.51;95.17
34034;BME280;63481;52.588;22.472;2023-07-31T01:46:27;99504.23;;;16.56;95.15
34034;BME280;63481;52.588;22.472;2023-07-31T01:46:59;99502.73;;;16.57;95.09
34034;BME280;63481;52.588;22.472;2023-07-31T01:47:32;99499.77;;;16.57;95.07
34034;BME280;63481;52.588;22.472;2023-07-31T01:48:04;99499.34;;;16.57;94.99
34034;BME280;63481;52.588;22.472;2023-07-31T01:48:36;99498.95;;;16.57;94.99
34034;BME280;63481;52.588;22.472;2023-07-31T01:49:08;99495.14;;;16.59;94.96
34034;BME280;63481;52.588;22.472;2023-07-31T01:49:40;99495.00;;;16.64;94.86
34034;BME280;63481;52.588;22.472;2023-07-31T01:50:12;99495.33;;;16.65;94.52
34034;BME280;63481;52.588;22.472;2023-07-31T01:50:43;99496.39;;;16.62;94.45
34034;BME280;63481;52.588;22.472;2023-07-31T01:51:15;99498.33;;;16.58;94.49
34034;BME280;63481;52.588;22.472;2023-07-31T01:51:47;99493.83;;;16.49;94.63
34034;BME280;63481;52.588;22.472;2023-07-31T01:52:19;99494.67;;;16.42;94.87
34034;BME280;63481;52.588;22.472;2023-07-31T01:52:51;99494.73;;;16.36;95.13
34034;BME280;63481;52.588;22.472;2023-07-31T01:53:23;99497.00;;;16.35;95.33
34034;BME280;63481;52.588;22.472;2023-07-31T01:53:55;99498.61;;;16.35;95.44
34034;BME280;63481;52.588;22.472;2023-07-31T01:54:27;99500.11;;;16.35;95.51
34034;BME280;63481;52.588;22.472;2023-07-31T01:54:58;99496.46;;;16.36;95.55
34034;BME280;63481;52.588;22.472;2023-07-31T01:55:30;99501.66;;;16.40;95.48
34034;BME280;63481;52.588;22.472;2023-07-31T01:56:02;99501.53;;;16.39;95.28
34034;BME280;63481;52.588;22.472;2023-07-31T01:56:36;99501.14;;;16.43;95.23
34034;BME280;63481;52.588;22.472;2023-07-31T01:57:08;99502.39;;;16.46;94.97
34034;BME280;63481;52.588;22.472;2023-07-31T01:57:39;99500.54;;;16.45;94.78
34034;BME280;63481;52.588;22.472;2023-07-31T01:58:11;99501.56;;;16.43;94.68
34034;BME280;63481;52.588;22.472;2023-07-31T01:58:43;99504.48;;;16.43;94.80
34034;BME280;63481;52.588;22.472;2023-07-31T01:59:15;99501.77;;;16.43;94.69
34034;BME280;63481;52.588;22.472;2023-07-31T01:59:47;99503.01;;;16.41;94.69
34034;BME280;63481;52.588;22.472;2023-07-31T02:00:19;99500.52;;;16.38;94.71
34034;BME280;63481;52.588;22.472;2023-07-31T02:00:51;99503.21;;;16.38;94.71
34034;BME280;63481;52.588;22.472;2023-07-31T02:01:22;99500.04;;;16.39;94.66
34034;BME280;63481;52.588;22.472;2023-07-31T02:01:55;99502.50;;;16.39;94.53
34034;BME280;63481;52.588;22.472;2023-07-31T02:02:26;99502.10;;;16.44;94.36
34034;BME280;63481;52.588;22.472;2023-07-31T02:02:59;99504.84;;;16.42;94.16
34034;BME280;63481;52.588;22.472;2023-07-31T02:03:31;99506.82;;;16.40;94.14
34034;BME280;63481;52.588;22.472;2023-07-31T02:04:03;99504.65;;;16.36;94.24
34034;BME280;63481;52.588;22.472;2023-07-31T02:04:36;99505.28;;;16.34;94.41
34034;BME280;63481;52.588;22.472;2023-07-31T02:05:10;99502.16;;;16.33;94.56
34034;BME280;63481;52.588;22.472;2023-07-31T02:05:46;99503.30;;;16.36;94.48
34034;BME280;63481;52.588;22.472;2023-07-31T02:06:19;99505.09;;;16.38;94.47
34034;BME280;63481;52.588;22.472;2023-07-31T02:06:52;99503.52;;;16.39;94.35
34034;BME280;63481;52.588;22.472;2023-07-31T02:07:24;99504.33;;;16.37;94.33
34034;BME280;63481;52.588;22.472;2023-07-31T02:07:56;99504.59;;;16.35;94.33
34034;BME280;63481;52.588;22.472;2023-07-31T02:08:32;99506.34;;;16.32;94.41
34034;BME280;63481;52.588;22.472;2023-07-31T02:09:04;99504.39;;;16.36;94.59
34034;BME280;63481;52.588;22.472;2023-07-31T02:09:37;99503.16;;;16.40;94.29
34034;BME280;63481;52.588;22.472;2023-07-31T02:10:09;99502.34;;;16.38;94.15
34034;BME280;63481;52.588;22.472;2023-07-31T02:10:41;99501.58;;;16.35;94.15
34034;BME280;63481;52.588;22.472;2023-07-31T02:11:13;99501.63;;;16.34;94.30
34034;BME280;63481;52.588;22.472;2023-07-31T02:11:44;99499.73;;;16.35;94.38
34034;BME280;63481;52.588;22.472;2023-07-31T02:12:16;99496.70;;;16.38;94.37
34034;BME280;63481;52.588;22.472;2023-07-31T02:12:48;99498.59;;;16.42;94.16
34034;BME280;63481;52.588;22.472;2023-07-31T02:13:20;99498.97;;;16.43;94.05
34034;BME280;63481;52.588;22.472;2023-07-31T02:13:52;99498.81;;;16.42;93.93
34034;BME280;63481;52.588;22.472;2023-07-31T02:14:24;99500.86;;;16.41;93.81
34034;BME280;63481;52.588;22.472;2023-07-31T02:14:56;99502.13;;;16.37;93.95
34034;BME280;63481;52.588;22.472;2023-07-31T02:15:28;99502.98;;;16.35;94.03
34034;BME280;63481;52.588;22.472;2023-07-31T02:15:59;99500.54;;;16.34;94.18
34034;BME280;63481;52.588;22.472;2023-07-31T02:16:31;99502.60;;;16.35;94.19
34034;BME280;63481;52.588;22.472;2023-07-31T02:17:03;99503.89;;;16.36;94.20
34034;BME280;63481;52.588;22.472;2023-07-31T02:17:35;99502.65;;;16.36;94.17
34034;BME280;63481;52.588;22.472;2023-07-31T02:18:07;99504.86;;;16.35;94.13
34034;BME280;63481;52.588;22.472;2023-07-31T02:18:39;99504.88;;;16.35;94.17
34034;BME280;63481;52.588;22.472;2023-07-31T02:19:11;99507.17;;;16.33;94.17
34034;BME280;63481;52.588;22.472;2023-07-31T02:19:43;99506.83;;;16.31;94.36
34034;BME280;63481;52.588;22.472;2023-07-31T02:20:14;99508.95;;;16.24;94.40
34034;BME280;63481;52.588;22.472;2023-07-31T02:20:50;99507.70;;;16.22;94.64
34034;BME280;63481;52.588;22.472;2023-07-31T02:21:22;99511.56;;;16.20;94.95
34034;BME280;63481;52.588;22.472;2023-07-31T02:21:54;99512.48;;;16.19;95.00
34034;BME280;63481;52.588;22.472;2023-07-31T02:22:28;99511.59;;;16.15;95.03
34034;BME280;63481;52.588;22.472;2023-07-31T02:23:01;99516.19;;;16.12;95.03
34034;BME280;63481;52.588;22.472;2023-07-31T02:23:33;99514.66;;;16.06;95.48
34034;BME280;63481;52.588;22.472;2023-07-31T02:24:05;99514.09;;;16.03;95.51
34034;BME280;63481;52.588;22.472;2023-07-31T02:24:37;99515.84;;;16.05;95.85
34034;BME280;63481;52.588;22.472;2023-07-31T02:25:08;99514.11;;;16.05;95.99
34034;BME280;63481;52.588;22.472;2023-07-31T02:25:40;99513.89;;;16.04;96.20
34034;BME280;63481;52.588;22.472;2023-07-31T02:26:12;99512.23;;;16.06;96.34
34034;BME280;63481;52.588;22.472;2023-07-31T02:26:44;99511.13;;;16.09;96.31
34034;BME280;63481;52.588;22.472;2023-07-31T02:27:16;99511.83;;;16.10;96.28
34034;BME280;63481;52.588;22.472;2023-07-31T02:27:48;99512.62;;;16.08;96.26
34034;BME280;63481;52.588;22.472;2023-07-31T02:28:19;99510.89;;;16.07;96.42
34034;BME280;63481;52.588;22.472;2023-07-31T02:28:51;99512.01;;;16.14;96.41
34034;BME280;63481;52.588;22.472;2023-07-31T02:29:23;99512.14;;;16.18;96.15
34034;BME280;63481;52.588;22.472;2023-07-31T02:29:55;99510.96;;;16.20;95.97
34034;BME280;63481;52.588;22.472;2023-07-31T02:30:27;99516.23;;;16.18;95.94
34034;BME280;63481;52.588;22.472;2023-07-31T02:30:59;99512.45;;;16.16;95.88
34034;BME280;63481;52.588;22.472;2023-07-31T02:31:31;99514.39;;;16.17;96.03
34034;BME280;63481;52.588;22.472;2023-07-31T02:32:03;99516.03;;;16.20;96.14
34034;BME280;63481;52.588;22.472;2023-07-31T02:32:35;99513.95;;;16.24;95.96
34034;BME280;63481;52.588;22.472;2023-07-31T02:33:07;99512.33;;;16.22;95.86
34034;BME280;63481;52.588;22.472;2023-07-31T02:33:39;99514.96;;;16.31;95.88
34034;BME280;63481;52.588;22.472;2023-07-31T02:34:10;99510.36;;;16.37;95.53
34034;BME280;63481;52.588;22.472;2023-07-31T02:34:42;99513.20;;;16.34;95.21
34034;BME280;63481;52.588;22.472;2023-07-31T02:35:14;99512.91;;;16.31;95.34
34034;BME280;63481;52.588;22.472;2023-07-31T02:35:47;99517.44;;;16.32;95.25
34034;BME280;63481;52.588;22.472;2023-07-31T02:36:19;99518.16;;;16.26;95.22
34034;BME280;63481;52.588;22.472;2023-07-31T02:36:50;99518.11;;;16.17;95.38
34034;BME280;63481;52.588;22.472;2023-07-31T02:37:24;99518.66;;;16.19;95.62
34034;BME280;63481;52.588;22.472;2023-07-31T02:37:56;99520.04;;;16.24;95.76
34034;BME280;63481;52.588;22.472;2023-07-31T02:38:28;99519.01;;;16.24;95.63
34034;BME280;63481;52.588;22.472;2023-07-31T02:39:00;99521.23;;;16.23;95.63
34034;BME280;63481;52.588;22.472;2023-07-31T02:39:32;99520.73;;;16.26;95.61
34034;BME280;63481;52.588;22.472;2023-07-31T02:40:04;99520.61;;;16.24;95.64
34034;BME280;63481;52.588;22.472;2023-07-31T02:40:36;99522.77;;;16.22;95.88
34034;BME280;63481;52.588;22.472;2023-07-31T02:41:08;99520.02;;;16.22;96.04
34034;BME280;63481;52.588;22.472;2023-07-31T02:41:39;99523.21;;;16.26;96.21
34034;BME280;63481;52.588;22.472;2023-07-31T02:42:12;99523.98;;;16.28;96.07
34034;BME280;63481;52.588;22.472;2023-07-31T02:42:44;99518.31;;;16.36;95.78
34034;BME280;63481;52.588;22.472;2023-07-31T02:43:17;99523.54;;;16.37;95.54
34034;BME280;63481;52.588;22.472;2023-07-31T02:43:49;99521.70;;;16.33;95.54
34034;BME280;63481;52.588;22.472;2023-07-31T02:44:21;99522.95;;;16.35;95.65
34034;BME280;63481;52.588;22.472;2023-07-31T02:44:53;99517.52;;;16.39;95.56
34034;BME280;63481;52.588;22.472;2023-07-31T02:45:27;99518.99;;;16.40;95.44
34034;BME280;63481;52.588;22.472;2023-07-31T02:45:59;99522.26;;;16.38;95.34
34034;BME280;63481;52.588;22.472;2023-07-31T02:46:32;99520.23;;;16.32;95.18
34034;BME280;63481;52.588;22.472;2023-07-31T02:47:04;99526.41;;;16.30;95.37
34034;BME280;63481;52.588;22.472;2023-07-31T02:47:36;99525.21;;;16.26;95.57
34034;BME280;63481;52.588;22.472;2023-07-31T02:48:07;99524.42;;;16.22;95.71
34034;BME280;63481;52.588;22.472;2023-07-31T02:48:39;99526.58;;;16.23;95.93
34034;BME280;63481;52.588;22.472;2023-07-31T02:49:11;99526.05;;;16.22;95.97
34034;BME280;63481;52.588;22.472;2023-07-31T02:49:43;99528.42;;;16.23;96.11
34034;BME280;63481;52.588;22.472;2023-07-31T02:50:15;99530.84;;;16.25;96.04
34034;BME280;63481;52.588;22.472;2023-07-31T02:50:47;99532.40;;;16.23;96.07
34034;BME280;63481;52.588;22.472;2023-07-31T02:51:19;99531.64;;;16.20;96.15
34034;BME280;63481;52.588;22.472;2023-07-31T02:51:53;99532.16;;;16.18;96.36
34034;BME280;63481;52.588;22.472;2023-07-31T02:52:25;99529.61;;;16.15;96.42
34034;BME280;63481;52.588;22.472;2023-07-31T02:52:56;99532.28;;;16.13;96.64
34034;BME280;63481;52.588;22.472;2023-07-31T02:53:28;99529.31;;;16.12;96.84
34034;BME280;63481;52.588;22.472;2023-07-31T02:54:00;99531.98;;;16.16;96.83
34034;BME280;63481;52.588;22.472;2023-07-31T02:54:32;99532.09;;;16.16;96.90
34034;BME280;63481;52.588;22.472;2023-07-31T02:55:04;99528.67;;;16.12;96.93
34034;BME280;63481;52.588;22.472;2023-07-31T02:55:36;99526.91;;;16.14;96.90
34034;BME280;63481;52.588;22.472;2023-07-31T02:56:08;99528.92;;;16.17;96.73
34034;BME280;63481;52.588;22.472;2023-07-31T02:56:39;99525.09;;;16.16;96.69
34034;BME280;63481;52.588;22.472;2023-07-31T02:57:11;99525.79;;;16.15;96.64